createdAt,value
2018-09-22T00:01:54.811Z,6.70
2018-09-22T00:04:21.974Z,4.85
2018-09-22T00:06:49.158Z,4.90
2018-09-22T00:09:16.350Z,5.28
2018-09-22T00:11:43.534Z,5.03
2018-09-22T00:14:10.813Z,5.12
2018-09-22T00:16:38.098Z,4.60
2018-09-22T00:19:05.302Z,5.00
2018-09-22T00:21:32.476Z,4.00
2018-09-22T00:23:59.920Z,5.10
2018-09-22T00:26:27.102Z,4.92
2018-09-22T00:28:54.274Z,4.62
2018-09-22T00:31:21.444Z,4.95
2018-09-22T00:33:48.622Z,4.83
2018-09-22T00:36:15.789Z,5.30
2018-09-22T00:38:43.006Z,5.15
2018-09-22T00:41:10.188Z,5.10
2018-09-22T00:43:37.363Z,4.00
2018-09-22T00:46:04.538Z,5.00
2018-09-22T00:48:31.711Z,4.28
2018-09-22T00:50:58.931Z,4.10
2018-09-22T00:53:26.128Z,3.58
2018-09-22T00:55:53.307Z,4.37
2018-09-22T00:58:20.497Z,4.22
2018-09-22T01:00:47.680Z,3.90
2018-09-22T01:03:14.851Z,3.98
2018-09-22T01:05:42.088Z,3.45
2018-09-22T01:08:09.291Z,3.70
2018-09-22T01:10:36.461Z,3.87
2018-09-22T01:13:03.639Z,4.70
2018-09-22T01:15:30.851Z,3.30
2018-09-22T01:17:58.014Z,4.00
2018-09-22T01:20:25.187Z,4.40
2018-09-22T01:22:52.371Z,3.50
2018-09-22T01:25:19.555Z,3.47
2018-09-22T01:27:46.837Z,4.12
2018-09-22T01:30:14.028Z,3.10
2018-09-22T01:32:41.201Z,3.40
2018-09-22T01:35:08.384Z,3.80
2018-09-22T01:37:35.574Z,3.77
2018-09-22T01:40:02.759Z,3.35
2018-09-22T01:42:29.952Z,3.08
2018-09-22T01:44:57.129Z,3.52
2018-09-22T01:47:24.295Z,4.72
2018-09-22T01:49:51.498Z,3.30
2018-09-22T01:52:18.718Z,4.03
2018-09-22T01:54:45.873Z,3.75
2018-09-22T01:57:13.071Z,4.20
2018-09-22T01:59:40.276Z,4.30
2018-09-22T02:02:07.446Z,4.42
2018-09-22T02:04:34.622Z,4.17
2018-09-22T02:07:01.805Z,3.77
2018-09-22T02:09:28.982Z,4.45
2018-09-22T02:11:56.150Z,3.60
2018-09-22T02:14:23.322Z,3.90
2018-09-22T02:16:50.481Z,3.90
2018-09-22T02:19:17.676Z,4.17
2018-09-22T02:21:44.838Z,4.42
2018-09-22T02:24:12.092Z,4.80
2018-09-22T02:26:39.276Z,5.42
2018-09-22T02:29:06.450Z,4.53
2018-09-22T02:31:33.636Z,5.83
2018-09-22T02:34:00.841Z,6.80
2018-09-22T02:36:28.039Z,6.58
2018-09-22T02:38:55.208Z,7.65
2018-09-22T02:41:22.374Z,8.43
2018-09-22T02:43:49.554Z,8.68
2018-09-22T02:46:16.743Z,8.15
2018-09-22T02:48:44.006Z,7.97
2018-09-22T02:51:11.184Z,8.10
2018-09-22T02:53:38.463Z,6.72
2018-09-22T02:56:05.638Z,5.15
2018-09-22T02:58:33.069Z,5.55
2018-09-22T03:01:00.226Z,4.95
2018-09-22T03:03:27.399Z,5.50
2018-09-22T03:05:54.736Z,4.60
2018-09-22T03:08:22.080Z,4.28
2018-09-22T03:10:49.291Z,4.67
2018-09-22T03:13:16.492Z,4.03
2018-09-22T03:15:43.667Z,4.25
2018-09-22T03:18:10.866Z,4.85
2018-09-22T03:20:38.054Z,4.90
2018-09-22T03:23:05.224Z,5.12
2018-09-22T03:25:32.481Z,4.90
2018-09-22T03:27:59.655Z,5.58
2018-09-22T03:30:26.844Z,4.92
2018-09-22T03:32:54.036Z,4.50
2018-09-22T03:35:22.105Z,4.87
2018-09-22T03:37:49.275Z,4.50
2018-09-22T03:40:16.445Z,4.40
2018-09-22T03:42:43.631Z,4.83
2018-09-22T03:45:10.799Z,4.90
2018-09-22T03:47:37.984Z,5.17
2018-09-22T03:50:05.158Z,5.20
2018-09-22T03:52:32.351Z,5.30
2018-09-22T03:54:59.551Z,5.47
2018-09-22T03:57:26.726Z,4.90
2018-09-22T03:59:53.908Z,4.67
2018-09-22T04:02:21.161Z,5.05
2018-09-22T04:04:48.359Z,4.67
2018-09-22T04:07:15.539Z,5.12
2018-09-22T04:09:42.704Z,4.62
2018-09-22T04:12:09.891Z,5.22
2018-09-22T04:14:37.194Z,5.37
2018-09-22T04:17:04.471Z,4.80
2018-09-22T04:19:31.662Z,5.87
2018-09-22T04:21:58.828Z,4.53
2018-09-22T04:24:26.016Z,4.35
2018-09-22T04:26:53.223Z,4.50
2018-09-22T04:29:21.057Z,5.30
2018-09-22T04:31:48.392Z,4.62
2018-09-22T04:34:15.568Z,4.15
2018-09-22T04:36:43.275Z,5.12
2018-09-22T04:39:10.724Z,5.40
2018-09-22T04:41:39.002Z,4.50
2018-09-22T04:44:06.598Z,4.90
2018-09-22T04:46:33.900Z,6.00
2018-09-22T04:49:01.156Z,4.78
2018-09-22T04:51:28.720Z,6.20
2018-09-22T04:53:56.018Z,5.85
2018-09-22T04:56:23.191Z,5.15
2018-09-22T04:58:50.362Z,4.90
2018-09-22T05:01:17.530Z,4.97
2018-09-22T05:03:44.723Z,6.00
2018-09-22T05:06:11.972Z,4.55
2018-09-22T05:08:39.147Z,4.80
2018-09-22T05:11:06.335Z,5.10
2018-09-22T05:13:33.523Z,7.92
2018-09-22T05:16:00.732Z,5.40
2018-09-22T05:18:28.120Z,5.30
2018-09-22T05:20:55.381Z,4.62
2018-09-22T05:23:22.570Z,5.70
2018-09-22T05:25:49.785Z,4.50
2018-09-22T05:28:17.403Z,4.05
2018-09-22T05:30:44.627Z,5.08
2018-09-22T05:33:11.791Z,4.95
2018-09-22T05:35:38.963Z,5.33
2018-09-22T05:38:06.161Z,4.42
2018-09-22T05:40:33.347Z,4.28
2018-09-22T05:43:00.515Z,4.05
2018-09-22T05:45:27.724Z,4.40
2018-09-22T05:47:55.173Z,4.37
2018-09-22T05:50:22.346Z,4.12
2018-09-22T05:52:49.543Z,3.75
2018-09-22T05:55:16.726Z,3.40
2018-09-22T05:57:43.961Z,4.33
2018-09-22T06:00:11.151Z,4.10
2018-09-22T06:02:38.347Z,4.60
2018-09-22T06:05:05.527Z,4.10
2018-09-22T06:07:32.721Z,3.47
2018-09-22T06:10:00.017Z,3.30
2018-09-22T06:12:27.195Z,3.85
2018-09-22T06:14:54.417Z,3.58
2018-09-22T06:17:21.601Z,3.72
2018-09-22T06:19:48.774Z,4.35
2018-09-22T06:22:15.969Z,3.20
2018-09-22T06:24:43.141Z,3.87
2018-09-22T06:27:10.328Z,3.62
2018-09-22T06:29:37.517Z,3.08
2018-09-22T06:32:04.713Z,3.50
2018-09-22T06:34:31.914Z,3.08
2018-09-22T06:36:59.087Z,3.10
2018-09-22T06:39:26.254Z,2.98
2018-09-22T06:41:53.462Z,2.45
2018-09-22T06:44:20.644Z,2.47
2018-09-22T06:46:47.823Z,3.30
2018-09-22T06:49:15.033Z,3.10
2018-09-22T06:51:42.223Z,3.05
2018-09-22T06:54:09.429Z,2.55
2018-09-22T06:56:36.653Z,3.37
2018-09-22T06:59:03.936Z,2.50
2018-09-22T07:01:31.118Z,3.17
2018-09-22T07:03:58.306Z,2.60
2018-09-22T07:06:25.506Z,2.62
2018-09-22T07:08:52.684Z,2.50
2018-09-22T07:11:19.871Z,2.58
2018-09-22T07:13:47.120Z,2.47
2018-09-22T07:16:14.258Z,3.10
2018-09-22T07:18:41.447Z,2.58
2018-09-22T07:21:09.360Z,2.52
2018-09-22T07:23:36.568Z,2.55
2018-09-22T07:26:04.184Z,3.10
2018-09-22T07:28:31.472Z,2.85
2018-09-22T07:30:58.937Z,2.35
2018-09-22T07:33:26.053Z,3.40
2018-09-22T07:35:53.257Z,3.33
2018-09-22T07:38:20.471Z,2.45
2018-09-22T07:40:47.671Z,2.55
2018-09-22T07:43:14.859Z,2.85
2018-09-22T07:45:42.091Z,2.20
2018-09-22T07:48:09.262Z,2.47
2018-09-22T07:50:36.540Z,2.20
2018-09-22T07:53:03.803Z,1.98
2018-09-22T07:55:30.963Z,2.60
2018-09-22T07:57:58.167Z,2.58
2018-09-22T08:00:25.632Z,2.25
2018-09-22T08:02:52.685Z,2.33
2018-09-22T08:05:19.889Z,2.20
2018-09-22T08:07:47.074Z,2.15
2018-09-22T08:10:14.350Z,1.72
2018-09-22T08:12:41.538Z,2.00
2018-09-22T08:15:08.708Z,2.25
2018-09-22T08:17:35.891Z,2.70
2018-09-22T08:20:03.092Z,3.12
2018-09-22T08:22:30.270Z,2.87
2018-09-22T08:24:57.446Z,2.10
2018-09-22T08:27:24.647Z,2.30
2018-09-22T08:29:51.827Z,2.02
2018-09-22T08:32:19.011Z,1.95
2018-09-22T08:34:46.194Z,2.85
2018-09-22T08:37:13.413Z,2.92
2018-09-22T08:39:40.589Z,2.50
2018-09-22T08:42:08.049Z,2.42
2018-09-22T08:44:35.233Z,2.47
2018-09-22T08:47:02.519Z,2.42
2018-09-22T08:49:29.713Z,2.33
2018-09-22T08:51:56.909Z,2.65
2018-09-22T08:54:24.087Z,2.37
2018-09-22T08:56:51.367Z,2.60
2018-09-22T08:59:18.559Z,2.40
2018-09-22T09:01:45.829Z,2.25
2018-09-22T09:04:13.132Z,2.52
2018-09-22T09:06:40.327Z,1.90
2018-09-22T09:09:07.929Z,2.65
2018-09-22T09:11:35.289Z,2.25
2018-09-22T09:14:02.507Z,2.05
2018-09-22T09:16:29.651Z,2.65
2018-09-22T09:18:56.830Z,2.20
2018-09-22T09:21:24.021Z,1.75
2018-09-22T09:23:51.204Z,3.17
2018-09-22T09:26:18.404Z,2.27
2018-09-22T09:28:47.442Z,1.80
2018-09-22T09:31:15.063Z,2.50
2018-09-22T09:33:42.252Z,1.65
2018-09-22T09:36:09.425Z,1.95
2018-09-22T09:38:36.602Z,1.60
2018-09-22T09:41:03.804Z,3.05
2018-09-22T09:43:30.980Z,1.95
2018-09-22T09:45:58.162Z,1.85
2018-09-22T09:48:25.327Z,2.10
2018-09-22T09:50:52.484Z,2.05
2018-09-22T09:53:19.907Z,2.25
2018-09-22T09:55:47.091Z,2.33
2018-09-22T09:58:14.250Z,2.15
2018-09-22T10:00:44.946Z,1.50
2018-09-22T10:03:12.693Z,2.75
2018-09-22T10:05:39.856Z,2.00
2018-09-22T10:08:07.063Z,1.40
2018-09-22T10:10:34.313Z,2.10
2018-09-22T10:13:01.496Z,1.92
2018-09-22T10:15:28.673Z,2.30
2018-09-22T10:17:55.839Z,2.10
2018-09-22T10:20:23.008Z,2.27
2018-09-22T10:22:50.187Z,2.15
2018-09-22T10:25:17.342Z,1.50
2018-09-22T10:27:44.511Z,2.33
2018-09-22T10:30:11.686Z,1.55
2018-09-22T10:32:38.864Z,1.47
2018-09-22T10:35:06.034Z,2.10
2018-09-22T10:37:33.720Z,2.08
2018-09-22T10:40:01.136Z,1.67
2018-09-22T10:42:28.328Z,1.60
2018-09-22T10:44:55.499Z,1.65
2018-09-22T10:47:22.687Z,1.40
2018-09-22T10:49:49.884Z,1.65
2018-09-22T10:52:17.076Z,1.30
2018-09-22T10:54:44.341Z,2.10
2018-09-22T10:57:11.656Z,1.90
2018-09-22T10:59:38.941Z,1.70
2018-09-22T11:02:06.422Z,1.37
2018-09-22T11:04:33.657Z,1.50
2018-09-22T11:07:00.823Z,1.67
2018-09-22T11:09:27.991Z,1.65
2018-09-22T11:11:55.166Z,1.15
2018-09-22T11:14:22.331Z,1.20
2018-09-22T11:16:49.494Z,1.72
2018-09-22T11:19:16.667Z,1.57
2018-09-22T11:21:43.848Z,1.50
2018-09-22T11:24:11.008Z,1.70
2018-09-22T11:26:38.189Z,1.50
2018-09-22T11:29:05.359Z,1.75
2018-09-22T11:31:32.517Z,1.15
2018-09-22T11:33:59.705Z,1.37
2018-09-22T11:36:26.880Z,1.75
2018-09-22T11:38:54.051Z,1.00
2018-09-22T11:41:21.248Z,1.40
2018-09-22T11:43:48.435Z,1.90
2018-09-22T11:46:15.680Z,1.37
2018-09-22T11:48:42.843Z,1.35
2018-09-22T11:51:10.015Z,1.75
2018-09-22T11:53:37.175Z,1.37
2018-09-22T11:56:04.376Z,1.60
2018-09-22T11:58:31.563Z,1.42
2018-09-22T12:00:58.741Z,1.20
2018-09-22T12:03:25.934Z,1.42
2018-09-22T12:05:53.236Z,1.67
2018-09-22T12:08:20.368Z,1.10
2018-09-22T12:10:47.556Z,1.85
2018-09-22T12:13:14.729Z,2.17
2018-09-22T12:15:41.915Z,1.10
2018-09-22T12:18:09.122Z,1.45
2018-09-22T12:20:36.314Z,1.42
2018-09-22T12:23:03.472Z,1.20
2018-09-22T12:25:30.655Z,2.37
2018-09-22T12:27:57.832Z,0.93
2018-09-22T12:30:25.015Z,2.12
2018-09-22T12:32:52.244Z,1.82
2018-09-22T12:35:19.431Z,1.80
2018-09-22T12:37:46.722Z,1.52
2018-09-22T12:40:13.925Z,1.25
2018-09-22T12:42:41.088Z,1.80
2018-09-22T12:45:08.263Z,1.47
2018-09-22T12:47:35.439Z,1.40
2018-09-22T12:50:02.602Z,1.62
2018-09-22T12:52:29.796Z,1.50
2018-09-22T12:54:56.983Z,1.67
2018-09-22T12:57:24.301Z,1.17
2018-09-22T12:59:51.475Z,1.02
2018-09-22T13:02:18.652Z,1.12
2018-09-22T13:04:45.857Z,1.40
2018-09-22T13:07:13.028Z,1.50
2018-09-22T13:09:40.212Z,0.95
2018-09-22T13:12:07.496Z,1.87
2018-09-22T13:14:34.691Z,1.25
2018-09-22T13:17:01.925Z,1.30
2018-09-22T13:19:29.099Z,1.32
2018-09-22T13:21:56.321Z,1.40
2018-09-22T13:24:23.507Z,1.40
2018-09-22T13:26:50.731Z,1.12
2018-09-22T13:29:17.876Z,1.52
2018-09-22T13:31:45.070Z,1.30
2018-09-22T13:34:12.259Z,1.57
2018-09-22T13:36:39.431Z,0.85
2018-09-22T13:39:08.218Z,1.60
2018-09-22T13:41:35.392Z,1.02
2018-09-22T13:44:02.567Z,1.05
2018-09-22T13:46:29.765Z,1.27
2018-09-22T13:48:56.943Z,1.50
2018-09-22T13:51:24.133Z,1.22
2018-09-22T13:53:51.327Z,1.55
2018-09-22T13:56:18.558Z,1.80
2018-09-22T13:58:45.798Z,1.30
2018-09-22T14:01:13.050Z,1.60
2018-09-22T14:03:40.245Z,1.67
2018-09-22T14:06:07.439Z,1.30
2018-09-22T14:08:34.621Z,1.20
2018-09-22T14:11:01.787Z,1.80
2018-09-22T14:13:28.945Z,1.70
2018-09-22T14:15:56.202Z,1.90
2018-09-22T14:18:23.359Z,1.40
2018-09-22T14:20:50.579Z,1.77
2018-09-22T14:23:17.767Z,1.20
2018-09-22T14:25:44.943Z,1.40
2018-09-22T14:28:12.209Z,2.45
2018-09-22T14:30:39.358Z,1.30
2018-09-22T14:33:06.518Z,1.87
2018-09-22T14:35:33.707Z,1.42
2018-09-22T14:38:00.878Z,1.22
2018-09-22T14:40:28.316Z,1.40
2018-09-22T14:42:55.433Z,1.67
2018-09-22T14:45:22.609Z,1.85
2018-09-22T14:47:49.789Z,1.37
2018-09-22T14:50:16.954Z,1.67
2018-09-22T14:52:44.223Z,1.62
2018-09-22T14:55:11.405Z,1.62
2018-09-22T14:57:38.577Z,1.37
2018-09-22T15:00:05.771Z,1.55
2018-09-22T15:02:33.000Z,1.25
2018-09-22T15:05:00.167Z,1.32
2018-09-22T15:07:27.574Z,1.17
2018-09-22T15:09:54.860Z,2.27
2018-09-22T15:12:22.027Z,1.90
2018-09-22T15:14:49.211Z,1.55
2018-09-22T15:17:16.436Z,1.90
2018-09-22T15:19:43.563Z,1.20
2018-09-22T15:22:10.755Z,2.33
2018-09-22T15:24:37.929Z,1.50
2018-09-22T15:27:05.086Z,1.90
2018-09-22T15:29:32.288Z,1.50
2018-09-22T15:31:59.459Z,1.45
2018-09-22T15:34:26.626Z,1.60
2018-09-22T15:36:53.859Z,2.27
2018-09-22T15:39:21.027Z,1.45
2018-09-22T15:41:48.198Z,2.77
2018-09-22T15:44:15.438Z,1.20
2018-09-22T15:46:42.616Z,1.20
2018-09-22T15:49:09.799Z,2.20
2018-09-22T15:51:36.961Z,1.47
2018-09-22T15:54:04.144Z,1.37
2018-09-22T15:56:31.316Z,1.10
2018-09-22T15:58:58.494Z,1.12
2018-09-22T16:01:25.695Z,1.27
2018-09-22T16:03:52.870Z,1.10
2018-09-22T16:06:20.050Z,1.70
2018-09-22T16:08:47.410Z,1.82
2018-09-22T16:11:14.578Z,1.30
2018-09-22T16:13:41.739Z,1.70
2018-09-22T16:16:09.041Z,1.30
2018-09-22T16:18:36.232Z,1.40
2018-09-22T16:21:03.603Z,1.10
2018-09-22T16:23:30.790Z,1.52
2018-09-22T16:25:57.960Z,1.25
2018-09-22T16:28:25.417Z,1.62
2018-09-22T16:30:52.598Z,1.20
2018-09-22T16:33:19.751Z,1.10
2018-09-22T16:35:47.071Z,1.52
2018-09-22T16:38:14.413Z,1.62
2018-09-22T16:40:41.678Z,1.70
2018-09-22T16:43:08.863Z,1.32
2018-09-22T16:45:36.078Z,2.40
2018-09-22T16:48:03.244Z,1.77
2018-09-22T16:50:30.505Z,2.45
2018-09-22T16:52:57.646Z,1.75
2018-09-22T16:55:24.811Z,1.82
2018-09-22T16:57:51.974Z,3.20
2018-09-22T17:00:19.170Z,1.95
2018-09-22T17:02:46.331Z,1.40
2018-09-22T17:05:13.634Z,1.50
2018-09-22T17:07:40.991Z,1.90
2018-09-22T17:10:08.163Z,1.60
2018-09-22T17:12:35.354Z,2.20
2018-09-22T17:15:02.587Z,1.75
2018-09-22T17:17:29.999Z,1.70
2018-09-22T17:19:57.208Z,1.75
2018-09-22T17:22:24.388Z,1.60
2018-09-22T17:24:51.574Z,1.52
2018-09-22T17:27:18.771Z,1.77
2018-09-22T17:29:45.947Z,1.30
2018-09-22T17:32:13.143Z,1.52
2018-09-22T17:34:40.348Z,3.05
2018-09-22T17:37:08.377Z,1.30
2018-09-22T17:39:35.546Z,1.60
2018-09-22T17:42:02.812Z,1.20
2018-09-22T17:44:30.029Z,1.15
2018-09-22T17:46:57.210Z,1.30
2018-09-22T17:49:24.414Z,1.57
2018-09-22T17:51:51.663Z,1.75
2018-09-22T17:54:18.935Z,1.37
2018-09-22T17:56:46.191Z,1.40
2018-09-22T17:59:13.409Z,1.82
2018-09-22T18:01:40.583Z,2.10
2018-09-22T18:04:07.776Z,2.08
2018-09-22T18:06:34.983Z,1.85
2018-09-22T18:09:02.247Z,1.62
2018-09-22T18:11:29.420Z,1.70
2018-09-22T18:13:56.619Z,1.98
2018-09-22T18:16:23.812Z,1.42
2018-09-22T18:18:50.997Z,1.60
2018-09-22T18:21:18.173Z,2.12
2018-09-22T18:23:45.346Z,1.95
2018-09-22T18:26:12.523Z,2.08
2018-09-22T18:28:39.747Z,1.80
2018-09-22T18:31:06.928Z,1.70
2018-09-22T18:33:34.104Z,1.62
2018-09-22T18:36:01.318Z,1.72
2018-09-22T18:38:28.492Z,1.90
2018-09-22T18:40:55.664Z,2.67
2018-09-22T18:43:22.875Z,1.57
2018-09-22T18:45:50.089Z,1.62
2018-09-22T18:48:17.251Z,1.95
2018-09-22T18:50:44.507Z,1.52
2018-09-22T18:53:11.679Z,1.70
2018-09-22T18:55:38.872Z,1.40
2018-09-22T18:58:06.059Z,1.60
2018-09-22T19:00:33.244Z,1.40
2018-09-22T19:03:00.406Z,1.70
2018-09-22T19:05:27.595Z,1.62
2018-09-22T19:07:54.792Z,1.60
2018-09-22T19:10:21.970Z,2.83
2018-09-22T19:12:49.468Z,1.90
2018-09-22T19:15:20.799Z,1.60
2018-09-22T19:17:52.377Z,1.67
2018-09-22T19:20:23.412Z,2.08
2018-09-22T19:22:52.303Z,2.05
2018-09-22T19:25:21.597Z,2.20
2018-09-22T19:27:54.577Z,1.50
2018-09-22T19:30:27.664Z,1.75
2018-09-22T19:32:58.221Z,1.80
2018-09-22T19:35:28.737Z,1.85
2018-09-22T19:38:00.140Z,1.70
2018-09-22T19:41:32.772Z,1.55
2018-09-22T19:46:11.312Z,1.60
2018-09-22T19:48:43.642Z,2.30
2018-09-22T19:51:14.406Z,1.52
2018-09-22T19:53:42.257Z,2.25
2018-09-22T19:56:09.475Z,1.75
2018-09-22T19:58:36.668Z,1.90
2018-09-22T20:01:03.928Z,1.80
2018-09-22T20:03:31.130Z,1.90
2018-09-22T20:05:58.315Z,1.98
2018-09-22T20:08:25.492Z,1.82
2018-09-22T20:10:52.806Z,2.22
2018-09-22T20:13:20.088Z,2.08
2018-09-22T20:15:47.278Z,1.50
2018-09-22T20:18:14.459Z,1.92
2018-09-22T20:20:41.646Z,1.80
2018-09-22T20:23:08.838Z,1.87
2018-09-22T20:25:36.012Z,1.40
2018-09-22T20:28:03.298Z,1.75
2018-09-22T20:30:30.503Z,1.55
2018-09-22T20:32:57.675Z,2.22
2018-09-22T20:35:24.858Z,2.40
2018-09-22T20:37:52.079Z,3.05
2018-09-22T20:40:19.239Z,2.08
2018-09-22T20:42:46.474Z,1.72
2018-09-22T20:45:13.651Z,2.25
2018-09-22T20:47:40.822Z,2.30
2018-09-22T20:50:08.051Z,1.90
2018-09-22T20:52:35.239Z,2.30
2018-09-22T20:55:02.452Z,2.02
2018-09-22T20:57:29.645Z,1.95
2018-09-22T20:59:56.825Z,1.85
2018-09-22T21:02:24.058Z,2.00
2018-09-22T21:04:51.223Z,2.05
2018-09-22T21:07:18.544Z,2.33
2018-09-22T21:09:45.734Z,1.85
2018-09-22T21:12:12.922Z,2.10
2018-09-22T21:14:40.114Z,1.57
2018-09-22T21:17:07.286Z,2.05
2018-09-22T21:19:34.470Z,2.25
2018-09-22T21:22:01.639Z,2.08
2018-09-22T21:24:28.810Z,1.82
2018-09-22T21:26:56.059Z,1.40
2018-09-22T21:29:23.218Z,1.60
2018-09-22T21:31:50.400Z,1.35
2018-09-22T21:34:17.590Z,1.85
2018-09-22T21:36:58.367Z,1.82
2018-09-22T21:39:25.547Z,1.65
2018-09-22T21:41:52.722Z,2.30
2018-09-22T21:44:19.945Z,1.62
2018-09-22T21:46:47.128Z,2.47
2018-09-22T21:49:14.302Z,1.72
2018-09-22T21:51:41.504Z,1.22
2018-09-22T21:54:08.725Z,1.70
2018-09-22T21:56:35.901Z,2.02
2018-09-22T21:59:03.088Z,2.10
2018-09-22T22:01:35.787Z,1.77
2018-09-22T22:04:03.024Z,1.85
2018-09-22T22:06:30.210Z,1.87
2018-09-22T22:08:57.386Z,2.00
2018-09-22T22:11:31.341Z,1.70
2018-09-22T22:13:58.542Z,1.67
2018-09-22T22:16:25.748Z,2.25
2018-09-22T22:18:52.950Z,1.90
2018-09-22T22:21:20.150Z,2.22
2018-09-22T22:23:47.361Z,2.35
2018-09-22T22:26:14.746Z,2.25
2018-09-22T22:28:41.942Z,2.80
2018-09-22T22:31:09.142Z,2.50
2018-09-22T22:33:36.330Z,1.60
2018-09-22T22:36:03.514Z,2.02
2018-09-22T22:38:30.731Z,1.92
2018-09-22T22:40:57.951Z,2.10
2018-09-22T22:43:25.286Z,1.87
2018-09-22T22:45:52.483Z,1.80
2018-09-22T22:48:19.675Z,2.05
2018-09-22T22:50:46.856Z,1.67
2018-09-22T22:53:14.071Z,2.08
2018-09-22T22:55:41.276Z,2.15
2018-09-22T22:58:08.443Z,2.90
2018-09-22T23:00:35.640Z,2.35
2018-09-22T23:03:02.819Z,1.62
2018-09-22T23:05:30.006Z,1.90
2018-09-22T23:07:57.179Z,1.87
2018-09-22T23:10:24.399Z,2.00
2018-09-22T23:12:51.615Z,1.85
2018-09-22T23:15:18.874Z,2.08
2018-09-22T23:17:46.107Z,1.80
2018-09-22T23:20:13.377Z,1.70
2018-09-22T23:22:40.572Z,1.85
2018-09-22T23:25:07.763Z,2.40
2018-09-22T23:27:35.084Z,2.00
2018-09-22T23:30:02.281Z,2.10
2018-09-22T23:32:29.460Z,2.17
2018-09-22T23:34:56.820Z,2.52
2018-09-22T23:37:23.973Z,2.58
2018-09-22T23:39:51.181Z,1.95
2018-09-22T23:42:18.376Z,1.80
2018-09-22T23:44:45.561Z,3.67
2018-09-22T23:47:12.766Z,1.82
2018-09-22T23:49:39.965Z,3.75
2018-09-22T23:52:07.149Z,1.87
2018-09-22T23:54:34.365Z,1.95
2018-09-22T23:57:01.576Z,2.00
2018-09-22T23:59:28.764Z,2.95
